Time;durP1;ratioP1;P1;durP2;ratioP2;P2;SDS_P1;SDS_P2;PMS_P1;PMS_P2;Temp;Humidity;BMP_temperature;BMP_pressure;BME280_temperature;BME280_humidity;BME280_pressure;Samples;Min_cycle;Max_cycle;Signal;HPM_P1;HPM_P2
2022/04/21 00:00:35;;;;;;;4.40;4.20;;;;;;;9.98;58.97;100809.19;5114974;28;20237;-69
2022/04/21 00:03:03;;;;;;;4.43;4.23;;;;;;;9.97;58.95;100804.00;5114856;28;20179;-69
2022/04/21 00:05:30;;;;;;;4.60;4.60;;;;;;;9.91;59.22;100799.84;5114520;28;20196;-69
2022/04/21 00:07:57;;;;;;;5.37;5.17;;;;;;;9.89;59.55;100789.44;5114536;28;20240;-69
2022/04/21 00:10:24;;;;;;;5.00;4.93;;;;;;;9.84;59.41;100806.22;5114475;28;20202;-69
2022/04/21 00:12:54;;;;;;;4.47;4.37;;;;;;;9.81;59.55;100790.66;5114406;28;20235;-69
2022/04/21 00:15:22;;;;;;;6.30;5.70;;;;;;;9.71;59.99;100786.66;5114679;28;20176;-69
2022/04/21 00:17:49;;;;;;;4.83;4.80;;;;;;;9.64;60.28;100775.56;5114385;28;20188;-69
2022/04/21 00:20:16;;;;;;;5.73;5.40;;;;;;;9.69;59.88;100775.41;5114350;28;20549;-69
2022/04/21 00:25:29;;;;;;;5.47;5.37;;;;;;;9.50;60.38;100769.97;5114217;28;20218;-69
2022/04/21 00:27:56;;;;;;;4.60;4.60;;;;;;;9.47;60.66;100775.34;5114224;28;20190;-69
2022/04/21 00:30:23;;;;;;;4.70;4.70;;;;;;;9.46;60.84;100774.47;5114078;28;20258;-69
2022/04/21 00:32:49;;;;;;;5.03;4.93;;;;;;;9.41;60.90;100771.16;5114135;28;20190;-69
2022/04/21 00:35:23;;;;;;;4.80;4.80;;;;;;;9.29;61.34;100766.41;5114568;28;20184;-69
2022/04/21 00:37:52;;;;;;;5.37;4.97;;;;;;;9.31;61.22;100764.56;5114101;28;20613;-69
2022/04/21 00:40:20;;;;;;;5.30;5.20;;;;;;;9.24;61.66;100765.69;5113982;28;20184;-69
2022/04/21 00:42:47;;;;;;;5.30;5.20;;;;;;;9.25;61.78;100767.41;5114265;28;20236;-69
2022/04/21 00:45:16;;;;;;;5.07;5.07;;;;;;;9.26;61.96;100771.72;5114502;28;20238;-69
2022/04/21 00:47:45;;;;;;;4.83;4.83;;;;;;;9.19;62.10;100757.16;5113948;28;20224;-69
2022/04/21 00:50:17;;;;;;;4.90;4.70;;;;;;;9.15;62.07;100764.28;5114078;28;20209;-69
2022/04/21 00:52:44;;;;;;;4.83;4.73;;;;;;;9.12;62.29;100760.88;5114134;28;20651;-69
2022/04/21 00:55:12;;;;;;;4.47;4.47;;;;;;;9.08;62.43;100758.41;5114067;28;20190;-69
2022/04/21 00:57:41;;;;;;;5.47;5.27;;;;;;;9.04;62.38;100767.22;5113709;28;20731;-69
2022/04/21 01:00:09;;;;;;;5.87;5.77;;;;;;;9.03;62.79;100764.69;5114011;28;20236;-69
2022/04/21 01:03:09;;;;;;;4.63;4.53;;;;;;;9.03;62.62;100760.31;5114041;28;20227;-69
2022/04/21 01:05:33;;;;;;;5.90;5.70;;;;;;;8.94;63.06;100763.25;5110512;28;20597;-69
2022/04/21 01:08:04;;;;;;;5.40;5.30;;;;;;;8.82;63.75;100766.25;5114182;28;20189;-69
2022/04/21 01:10:36;;;;;;;5.83;5.40;;;;;;;8.79;63.87;100761.16;5113883;28;20247;-69
2022/04/21 01:13:06;;;;;;;5.40;5.30;;;;;;;8.78;63.89;100767.25;5113931;28;20166;-69
2022/04/21 01:15:32;;;;;;;5.27;5.17;;;;;;;8.74;64.23;100769.13;5116662;28;20246;-69
2022/04/21 01:17:59;;;;;;;5.97;5.60;;;;;;;8.69;64.34;100764.94;5117926;28;20210;-69
2022/04/21 01:20:26;;;;;;;4.83;4.83;;;;;;;8.61;64.59;100761.75;5117846;28;20181;-69
2022/04/21 01:22:53;;;;;;;6.07;5.87;;;;;;;8.53;65.06;100762.00;5118050;28;20189;-69
2022/04/21 01:25:21;;;;;;;5.47;5.27;;;;;;;8.43;65.63;100764.06;5117653;28;20550;-69
2022/04/21 01:27:51;;;;;;;6.13;6.03;;;;;;;8.34;66.21;100761.66;5117680;28;20205;-69
2022/04/21 01:30:18;;;;;;;6.87;6.07;;;;;;;8.31;66.38;100758.31;5117846;28;20193;-69
2022/04/21 01:32:48;;;;;;;5.97;5.43;;;;;;;8.18;67.05;100753.47;5117843;28;20238;-69
2022/04/21 01:35:14;;;;;;;6.13;5.90;;;;;;;8.12;67.21;100764.09;5117568;28;20195;-69
2022/04/21 01:43:12;;;;;;;8.50;6.60;;;;;;;8.17;66.48;100764.81;5117762;28;20185;-68
2022/04/21 01:45:39;;;;;;;6.43;5.80;;;;;;;8.17;66.29;100753.53;5117591;28;20274;-68
2022/04/21 01:48:05;;;;;;;6.07;5.70;;;;;;;8.16;66.56;100755.28;5117329;28;20189;-68
2022/04/21 01:50:32;;;;;;;5.97;5.53;;;;;;;8.16;66.30;100765.72;5118032;28;20209;-68
2022/04/21 01:52:59;;;;;;;5.77;5.57;;;;;;;8.19;66.42;100749.13;5117233;28;20185;-68
2022/04/21 01:55:26;;;;;;;5.97;5.57;;;;;;;8.15;66.57;100752.72;5117382;28;20275;-68
2022/04/21 01:57:53;;;;;;;6.17;5.97;;;;;;;8.14;66.49;100751.84;5117142;28;20185;-68
2022/04/21 02:00:20;;;;;;;6.07;5.77;;;;;;;8.08;66.23;100744.25;5117116;28;20177;-68
2022/04/21 02:02:47;;;;;;;6.17;5.97;;;;;;;8.05;66.94;100744.31;5117084;28;20738;-68
2022/04/21 02:05:14;;;;;;;5.90;5.80;;;;;;;8.03;67.07;100734.84;5117564;28;20181;-68
2022/04/21 02:07:43;;;;;;;6.37;6.07;;;;;;;7.93;67.26;100731.66;5117242;28;20212;-68
2022/04/21 02:10:15;;;;;;;6.43;6.03;;;;;;;7.85;67.22;100739.69;5116783;28;20201;-68
2022/04/21 02:12:42;;;;;;;6.03;5.87;;;;;;;7.84;67.50;100727.56;5117158;28;20548;-68
2022/04/21 02:15:09;;;;;;;6.30;6.10;;;;;;;7.79;67.97;100739.91;5117118;28;20173;-68
2022/04/21 02:17:36;;;;;;;5.60;5.50;;;;;;;7.71;68.48;100732.31;5116981;28;20549;-68
2022/04/21 02:20:06;;;;;;;5.47;5.17;;;;;;;7.62;69.17;100729.94;5116713;28;20165;-68
2022/04/21 02:22:34;;;;;;;6.57;6.33;;;;;;;7.58;69.59;100733.56;5117209;28;20712;-68
2022/04/21 02:25:03;;;;;;;7.43;6.73;;;;;;;7.58;69.35;100722.28;5116685;28;20217;-68
2022/04/21 02:27:32;;;;;;;6.93;6.67;;;;;;;7.55;69.83;100724.97;5115441;28;20253;-72
2022/04/21 02:29:59;;;;;;;7.07;6.83;;;;;;;7.58;69.48;100725.75;5116999;28;20205;-69
2022/04/21 02:32:26;;;;;;;9.27;8.73;;;;;;;7.56;69.68;100721.47;5116449;28;20695;-69
2022/04/21 02:34:55;;;;;;;9.73;9.03;;;;;;;7.57;69.37;100723.16;5116475;28;20181;-69
2022/04/21 02:37:23;;;;;;;7.27;7.07;;;;;;;7.54;69.58;100733.69;5116692;28;20758;-69
2022/04/21 02:39:49;;;;;;;6.50;6.30;;;;;;;7.54;69.78;100725.88;5116312;28;20230;-69
2022/04/21 02:42:17;;;;;;;6.63;6.53;;;;;;;7.55;70.24;100725.81;5116853;28;20192;-69
2022/04/21 02:44:43;;;;;;;5.70;5.43;;;;;;;7.49;70.54;100722.53;5116295;28;20185;-69
2022/04/21 02:47:10;;;;;;;6.97;6.47;;;;;;;7.47;70.53;100717.38;5116377;28;20250;-68
2022/04/21 02:49:37;;;;;;;10.63;7.57;;;;;;;7.41;70.80;100713.19;5116064;28;20716;-68
2022/04/21 02:52:08;;;;;;;6.93;6.67;;;;;;;7.40;70.67;100716.69;5116075;28;20242;-68
2022/04/21 02:57:20;;;;;;;6.93;6.57;;;;;;;7.26;71.51;100724.03;5116462;28;20212;-68
2022/04/21 02:59:52;;;;;;;5.60;5.50;;;;;;;7.22;71.69;100727.63;5115942;28;20187;-68
2022/04/21 03:02:20;;;;;;;6.20;6.00;;;;;;;7.14;72.54;100716.53;5115825;28;20189;-68
2022/04/21 03:04:48;;;;;;;6.43;6.33;;;;;;;7.08;72.55;100717.59;5116072;28;20200;-68
2022/04/21 03:07:14;;;;;;;7.37;6.80;;;;;;;7.05;72.95;100719.41;5115788;28;20247;-68
2022/04/21 03:09:41;;;;;;;7.57;7.33;;;;;;;7.02;72.67;100714.28;5115923;28;20544;-68
2022/04/21 03:12:08;;;;;;;6.60;6.40;;;;;;;6.94;73.19;100724.91;5116029;28;20229;-68
2022/04/21 03:14:40;;;;;;;7.03;6.73;;;;;;;6.92;73.18;100718.00;5115628;28;20185;-68
2022/04/21 03:17:08;;;;;;;7.67;6.90;;;;;;;6.90;73.36;100715.47;5116118;28;20209;-68
2022/04/21 03:19:35;;;;;;;7.47;7.07;;;;;;;6.86;74.10;100709.50;5115555;28;20187;-68
2022/04/21 03:24:48;;;;;;;7.37;6.87;;;;;;;6.86;74.38;100714.69;5115714;28;20184;-68
2022/04/21 03:27:14;;;;;;;7.40;6.73;;;;;;;6.77;74.70;100709.72;5115368;28;20201;-68
2022/04/21 03:29:41;;;;;;;11.27;10.37;;;;;;;6.65;75.13;100707.44;5115659;28;20184;-68
2022/04/21 03:32:10;;;;;;;7.30;6.67;;;;;;;6.59;75.47;100708.44;5115284;28;20204;-68
2022/04/21 03:34:40;;;;;;;7.37;6.70;;;;;;;6.57;75.67;100706.75;5115800;28;20190;-68
2022/04/21 03:37:11;;;;;;;7.97;7.13;;;;;;;6.50;75.71;100716.50;5114720;28;20219;-68
2022/04/21 03:39:39;;;;;;;7.63;7.13;;;;;;;6.46;75.68;100720.03;5115175;28;20187;-68
2022/04/21 03:42:07;;;;;;;6.30;6.20;;;;;;;6.47;75.52;100711.34;5115129;28;20300;-68
2022/04/21 03:44:40;;;;;;;6.50;6.30;;;;;;;6.51;75.21;100719.94;5115091;28;20192;-68
2022/04/21 03:47:07;;;;;;;7.07;6.87;;;;;;;6.49;75.15;100724.31;5115054;28;20782;-68
2022/04/21 03:49:34;;;;;;;6.07;6.03;;;;;;;6.49;75.17;100719.09;5114951;28;20191;-68
2022/04/21 03:52:00;;;;;;;6.97;6.67;;;;;;;6.47;75.45;100718.28;5115096;28;20209;-68
2022/04/21 03:54:27;;;;;;;6.83;6.67;;;;;;;6.43;75.39;100722.72;5114851;28;20190;-68
2022/04/21 03:56:54;;;;;;;7.27;6.60;;;;;;;6.43;75.60;100720.13;5115027;28;20256;-68
2022/04/21 03:59:23;;;;;;;7.80;7.57;;;;;;;6.46;75.58;100721.78;5115329;28;20244;-68
2022/04/21 04:01:52;;;;;;;7.23;6.93;;;;;;;6.41;75.46;100719.28;5115015;28;20178;-68
2022/04/21 04:04:19;;;;;;;7.07;6.60;;;;;;;6.39;76.03;100721.09;5114590;28;20720;-68
2022/04/21 04:12:15;;;;;;;7.57;7.33;;;;;;;6.22;76.98;100721.50;5114737;28;20238;-68
2022/04/21 04:14:42;;;;;;;6.83;6.60;;;;;;;6.23;77.44;100717.16;5114469;28;20183;-68
2022/04/21 04:17:10;;;;;;;6.57;6.47;;;;;;;6.19;77.53;100718.94;5115222;28;20682;-68
2022/04/21 04:19:37;;;;;;;7.90;7.50;;;;;;;6.10;78.30;100720.91;5114353;28;20769;-68
2022/04/21 04:22:04;;;;;;;6.90;6.57;;;;;;;6.11;78.42;100726.06;5114311;28;20180;-68
2022/04/21 04:24:30;;;;;;;7.70;7.40;;;;;;;6.10;78.72;100726.13;5114574;28;20189;-68
2022/04/21 04:26:57;;;;;;;7.67;7.30;;;;;;;5.97;79.77;100721.19;5096163;28;20213;-68
2022/04/21 04:29:24;;;;;;;8.03;7.63;;;;;;;5.96;79.91;100726.41;5114214;28;20294;-68
2022/04/21 04:31:52;;;;;;;9.07;8.57;;;;;;;5.95;79.69;100722.13;5114664;28;20261;-68
2022/04/21 04:34:19;;;;;;;8.90;8.00;;;;;;;6.03;79.12;100721.03;5114672;28;20278;-68
2022/04/21 04:36:46;;;;;;;9.67;9.03;;;;;;;6.01;79.01;100724.59;5114220;28;20258;-68
2022/04/21 04:39:14;;;;;;;8.17;7.63;;;;;;;6.07;78.82;100716.63;5114629;28;20222;-68
2022/04/21 04:44:25;;;;;;;7.83;7.27;;;;;;;6.13;78.49;100728.63;5114030;28;20175;-68
2022/04/21 04:46:52;;;;;;;7.73;7.33;;;;;;;6.08;78.97;100728.75;5113049;28;20260;-68
2022/04/21 04:49:19;;;;;;;8.57;8.23;;;;;;;6.11;79.01;100723.47;5107528;28;20238;-67
2022/04/21 04:51:45;;;;;;;7.93;7.57;;;;;;;6.12;79.21;100732.13;5112302;28;20274;-68
2022/04/21 04:54:14;;;;;;;8.07;7.77;;;;;;;6.17;79.32;100723.34;5111283;28;20191;-68
2022/04/21 04:56:43;;;;;;;8.23;8.03;;;;;;;6.20;79.34;100730.19;5112901;28;20197;-68
2022/04/21 04:59:10;;;;;;;7.53;7.13;;;;;;;6.28;79.41;100733.47;5113690;28;20246;-69
2022/04/21 05:01:41;;;;;;;7.63;7.43;;;;;;;6.34;79.17;100735.94;5111598;28;20181;-68
2022/04/21 05:04:13;;;;;;;8.20;7.73;;;;;;;6.39;79.16;100741.03;5111474;28;20196;-68
2022/04/21 05:06:43;;;;;;;8.93;8.10;;;;;;;6.48;79.16;100739.06;5113185;28;20212;-68
2022/04/21 05:09:11;;;;;;;8.33;7.47;;;;;;;6.58;79.01;100739.72;5112467;28;20191;-68
2022/04/21 05:11:40;;;;;;;8.43;8.13;;;;;;;6.69;79.16;100742.03;5111966;28;20209;-68
2022/04/21 05:14:08;;;;;;;7.30;7.20;;;;;;;6.78;78.91;100750.44;5113530;28;20565;-68
2022/04/21 05:16:39;;;;;;;10.97;7.73;;;;;;;6.94;78.07;100747.47;5112314;28;20208;-68
2022/04/21 05:19:07;;;;;;;8.53;8.17;;;;;;;6.98;78.55;100741.28;5114191;28;20215;-68
2022/04/21 05:21:35;;;;;;;7.13;6.67;;;;;;;7.09;77.73;100734.06;5113797;28;20187;-68
2022/04/21 05:24:03;;;;;;;10.37;7.77;;;;;;;7.27;77.79;100728.34;5114061;28;20642;-68
2022/04/21 05:26:31;;;;;;;8.07;7.60;;;;;;;7.35;76.64;100731.56;5113837;28;20211;-68
2022/04/21 05:29:00;;;;;;;9.10;7.17;;;;;;;7.46;76.36;100728.69;5113999;28;20186;-69
2022/04/21 05:31:27;;;;;;;8.10;7.80;;;;;;;7.50;76.59;100722.50;5113686;28;20253;-68
2022/04/21 05:33:54;;;;;;;6.83;6.70;;;;;;;7.71;75.75;100721.00;5110721;28;20192;-68
2022/04/21 05:36:21;;;;;;;7.63;7.33;;;;;;;7.73;75.56;100720.09;5110201;28;20229;-68
2022/04/21 05:38:51;;;;;;;8.17;7.53;;;;;;;7.81;76.19;100722.47;5111149;28;20203;-68
2022/04/21 05:41:19;;;;;;;7.70;7.20;;;;;;;7.89;75.31;100722.22;5114281;28;20169;-68
2022/04/21 05:43:47;;;;;;;8.60;7.73;;;;;;;7.94;74.62;100723.81;5113690;28;20165;-69
2022/04/21 05:46:15;;;;;;;7.23;7.13;;;;;;;7.91;75.60;100723.88;5111913;28;20227;-68
2022/04/21 05:48:42;;;;;;;11.83;8.10;;;;;;;8.10;75.61;100715.50;5111108;28;20189;-68
2022/04/21 05:51:10;;;;;;;8.30;7.43;;;;;;;8.08;75.81;100715.56;5113266;28;20239;-69
2022/04/21 05:53:39;;;;;;;8.07;7.53;;;;;;;8.12;74.80;100717.16;5113605;28;20568;-69
2022/04/21 05:56:07;;;;;;;7.73;7.53;;;;;;;8.22;73.74;100715.13;5110785;28;21237;-69
2022/04/21 05:58:37;;;;;;;8.20;7.77;;;;;;;8.30;74.05;100714.88;5110508;28;20597;-68
2022/04/21 06:01:07;;;;;;;7.77;7.47;;;;;;;8.25;75.36;100709.81;5113493;28;20181;-68
2022/04/21 06:03:35;;;;;;;8.23;7.93;;;;;;;8.46;73.29;100708.28;5105621;28;20170;-69
2022/04/21 06:06:02;;;;;;;8.17;7.07;;;;;;;8.49;73.90;100706.41;5116666;28;20208;-69
2022/04/21 06:08:28;;;;;;;8.13;7.73;;;;;;;8.64;73.98;100704.19;5103407;28;20219;-69
2022/04/21 06:10:57;;;;;;;7.60;7.40;;;;;;;8.61;73.32;100704.31;5114711;28;20741;-69
2022/04/21 06:13:25;;;;;;;7.63;7.53;;;;;;;8.70;72.73;100701.41;5116445;28;20189;-69
2022/04/21 06:15:52;;;;;;;12.03;7.97;;;;;;;8.76;72.65;100698.59;5110735;28;20763;-69
2022/04/21 06:18:20;;;;;;;8.53;8.03;;;;;;;8.81;72.57;100696.69;5113636;28;20209;-69
2022/04/21 06:20:47;;;;;;;7.77;7.37;;;;;;;8.93;72.43;100690.16;5116395;28;20242;-69
2022/04/21 06:23:14;;;;;;;8.37;7.90;;;;;;;8.97;71.88;100692.63;5111718;28;20193;-69
2022/04/21 06:25:42;;;;;;;7.83;7.47;;;;;;;8.94;72.35;100697.97;5116077;28;20213;-69
2022/04/21 06:28:09;;;;;;;7.20;6.80;;;;;;;9.10;72.71;100698.25;5115254;28;20238;-69
2022/04/21 06:30:36;;;;;;;7.07;6.97;;;;;;;9.15;71.94;100700.72;5115834;28;20245;-69
2022/04/21 06:33:03;;;;;;;9.90;7.83;;;;;;;9.16;72.01;100691.97;5115059;28;20242;-69
2022/04/21 06:35:30;;;;;;;7.77;7.17;;;;;;;9.30;71.36;100701.03;5116156;28;20246;-69
2022/04/21 06:37:57;;;;;;;7.80;7.57;;;;;;;9.50;71.11;100697.69;5116287;28;20193;-69
2022/04/21 06:40:24;;;;;;;7.57;7.17;;;;;;;9.52;70.60;100701.09;5116531;28;20193;-70
2022/04/21 06:42:50;;;;;;;7.60;7.43;;;;;;;9.63;70.29;100698.06;5116228;28;20185;-69
2022/04/21 06:48:03;;;;;;;7.33;7.10;;;;;;;9.78;70.15;100696.63;5116314;28;20227;-69
2022/04/21 06:50:37;;;;;;;8.03;7.43;;;;;;;9.85;70.36;100700.69;5116376;28;20179;-69
2022/04/21 06:53:13;;;;;;;7.23;6.60;;;;;;;10.06;69.86;100691.16;5116900;28;20546;-69
2022/04/21 06:55:39;;;;;;;7.23;7.13;;;;;;;10.16;66.84;100693.38;5116246;28;20210;-69
2022/04/21 06:58:06;;;;;;;7.30;7.00;;;;;;;10.14;67.09;100699.56;5116549;28;20235;-69
2022/04/21 07:00:32;;;;;;;7.60;7.33;;;;;;;10.13;66.16;100690.00;5116675;28;20225;-69
2022/04/21 07:02:59;;;;;;;6.60;6.40;;;;;;;10.04;66.28;100698.22;5115895;28;20659;-69
2022/04/21 07:05:26;;;;;;;7.87;7.30;;;;;;;10.30;65.69;100689.38;5116007;28;20539;-69
2022/04/21 07:07:53;;;;;;;8.67;7.53;;;;;;;10.39;66.13;100691.63;5116173;28;20169;-70
2022/04/21 07:10:21;;;;;;;6.77;6.67;;;;;;;10.50;65.12;100686.78;5116476;28;20187;-70
2022/04/21 07:12:47;;;;;;;7.07;6.87;;;;;;;10.51;64.86;100696.34;5114985;28;20204;-70
2022/04/21 07:15:14;;;;;;;8.20;7.47;;;;;;;10.63;65.49;100700.22;5115905;28;20234;-68
2022/04/21 07:17:42;;;;;;;7.13;6.80;;;;;;;10.77;65.60;100712.72;5115778;28;20567;-68
2022/04/21 07:20:11;;;;;;;8.00;7.57;;;;;;;10.97;66.19;100702.25;5116062;28;20176;-68
2022/04/21 07:22:38;;;;;;;7.93;7.50;;;;;;;11.21;64.76;100701.19;5116049;28;20169;-68
2022/04/21 07:25:08;;;;;;;6.70;6.40;;;;;;;11.52;64.03;100710.31;5115943;28;20184;-68
2022/04/21 07:27:36;;;;;;;7.77;7.30;;;;;;;11.65;63.00;100703.59;5115368;28;20204;-68
2022/04/21 07:30:04;;;;;;;7.97;7.80;;;;;;;11.92;62.02;100705.88;5115600;28;20692;-68
2022/04/21 07:32:31;;;;;;;7.40;7.20;;;;;;;12.09;62.72;100713.81;5115184;28;20215;-68
2022/04/21 07:34:59;;;;;;;7.13;6.77;;;;;;;12.05;60.65;100712.25;5115644;28;20593;-68
2022/04/21 07:37:26;;;;;;;7.03;6.93;;;;;;;11.98;61.70;100718.72;5115223;28;20238;-68
2022/04/21 07:39:53;;;;;;;6.93;6.57;;;;;;;11.95;58.98;100717.09;5115166;28;20676;-68
2022/04/21 07:42:22;;;;;;;7.10;6.60;;;;;;;11.85;57.54;100719.28;5115047;28;20655;-68
2022/04/21 07:44:48;;;;;;;6.63;6.43;;;;;;;11.68;59.36;100716.56;5114962;28;20189;-68
2022/04/21 07:47:15;;;;;;;6.83;6.73;;;;;;;11.72;58.18;100722.53;5115172;28;20612;-68
2022/04/21 07:49:46;;;;;;;6.87;6.67;;;;;;;11.82;60.14;100714.19;5114661;28;20190;-68
2022/04/21 07:55:20;;;;;;;7.43;6.77;;;;;;;11.85;56.75;100713.19;5096790;28;20189;-69
2022/04/21 07:57:47;;;;;;;6.17;6.07;;;;;;;11.91;56.14;100717.28;5096428;28;20258;-68
2022/04/21 08:00:16;;;;;;;7.27;6.53;;;;;;;11.97;57.07;100722.25;5115231;28;20193;-68
2022/04/21 08:02:45;;;;;;;6.20;6.20;;;;;;;11.96;56.56;100715.31;5114879;28;20209;-68
2022/04/21 08:05:14;;;;;;;6.83;6.60;;;;;;;11.98;56.95;100710.84;5114678;28;20184;-69
2022/04/21 08:07:41;;;;;;;19.30;6.93;;;;;;;12.11;56.81;100707.56;5114610;28;20212;-68
2022/04/21 08:10:09;;;;;;;6.97;6.77;;;;;;;12.27;57.44;100709.44;5114740;28;20189;-69
2022/04/21 08:12:40;;;;;;;6.83;6.60;;;;;;;12.34;55.21;100703.81;5114467;28;20277;-69
2022/04/21 08:15:08;;;;;;;5.87;5.77;;;;;;;12.49;55.90;100704.84;5115087;28;20185;-68
2022/04/21 08:17:39;;;;;;;5.30;5.27;;;;;;;12.74;55.40;100698.38;5114545;28;20233;-68
2022/04/21 08:20:08;;;;;;;6.43;6.23;;;;;;;12.94;54.64;100706.94;5114622;28;20544;-68
2022/04/21 08:22:35;;;;;;;5.47;5.33;;;;;;;13.10;52.09;100707.00;5114353;28;20169;-68
2022/04/21 08:33:22;;;;;;;4.80;4.50;;;;;;;13.21;50.35;100714.34;5114730;28;20232;-68
2022/04/21 08:35:50;;;;;;;5.17;5.07;;;;;;;13.36;51.09;100710.94;5096080;28;20268;-69
2022/04/21 08:38:17;;;;;;;5.27;5.17;;;;;;;13.65;51.17;100708.53;5113941;28;20665;-69
2022/04/21 08:40:56;;;;;;;4.80;4.70;;;;;;;13.63;51.36;100710.38;5114456;28;20188;-68
2022/04/21 08:43:25;;;;;;;7.53;5.30;;;;;;;13.66;49.93;100711.06;5114455;28;20172;-68
2022/04/21 08:45:53;;;;;;;5.03;4.93;;;;;;;13.38;50.68;100708.22;5113888;28;20204;-69
2022/04/21 08:48:21;;;;;;;4.83;4.83;;;;;;;13.51;51.77;100704.00;5095625;28;20201;-68
2022/04/21 08:50:48;;;;;;;5.33;5.10;;;;;;;13.69;52.53;100700.38;5113945;28;20236;-68
2022/04/21 08:53:20;;;;;;;5.03;4.93;;;;;;;13.72;50.15;100704.63;5113685;28;20703;-69
2022/04/21 08:55:48;;;;;;;4.80;4.43;;;;;;;13.97;51.39;100694.44;5113937;28;20226;-69
2022/04/21 08:58:14;;;;;;;5.67;5.37;;;;;;;13.94;50.30;100705.16;5113823;28;20187;-69
2022/04/21 09:00:43;;;;;;;4.80;4.70;;;;;;;13.75;50.25;100707.09;5114024;28;20196;-69
2022/04/21 09:03:12;;;;;;;5.27;5.07;;;;;;;13.57;51.28;100695.75;5114031;28;20251;-68
2022/04/21 09:05:39;;;;;;;5.63;5.53;;;;;;;13.64;50.56;100689.22;5113832;28;20559;-68
2022/04/21 09:08:21;;;;;;;5.83;5.50;;;;;;;13.58;50.42;100692.22;5113734;28;20185;-68
2022/04/21 09:11:04;;;;;;;5.57;5.47;;;;;;;13.84;50.93;100688.16;5113868;28;20584;-68
2022/04/21 09:13:41;;;;;;;5.90;5.80;;;;;;;13.93;51.85;100676.25;5113858;28;20233;-69
2022/04/21 09:16:09;;;;;;;4.73;4.73;;;;;;;14.11;49.72;100683.13;5113802;28;20211;-68
2022/04/21 09:18:43;;;;;;;5.03;4.60;;;;;;;14.08;50.58;100678.03;5113677;28;20194;-68
2022/04/21 09:21:14;;;;;;;4.77;4.57;;;;;;;14.21;51.21;100671.13;5113876;28;20679;-68
2022/04/21 09:23:42;;;;;;;9.17;4.73;;;;;;;14.17;47.88;100680.16;5114181;28;20188;-68
2022/04/21 09:26:16;;;;;;;4.33;4.23;;;;;;;14.23;49.00;100684.22;5113755;28;20212;-68
2022/04/21 09:28:56;;;;;;;3.73;3.70;;;;;;;14.29;48.71;100684.72;5113782;28;20267;-69
2022/04/21 09:31:27;;;;;;;4.50;4.50;;;;;;;14.38;49.02;100677.22;5113445;28;20177;-69
2022/04/21 09:33:55;;;;;;;4.17;4.07;;;;;;;14.44;48.71;100677.72;5113334;28;20221;-68
2022/04/21 09:36:22;;;;;;;4.47;4.37;;;;;;;14.45;49.83;100679.41;5115936;28;20576;-68
2022/04/21 09:38:59;;;;;;;4.17;4.17;;;;;;;14.68;49.94;100667.56;5118139;28;20173;-68
2022/04/21 09:41:28;;;;;;;13.03;4.43;;;;;;;14.88;48.41;100676.94;5117822;28;20173;-69
2022/04/21 09:46:07;;;;;;;4.83;4.73;;;;;;;15.05;46.17;100668.00;5118236;28;20576;-69
2022/04/21 09:47:05;;;;;;;4.80;4.80;;;;;;;14.41;45.79;100664.72;5117408;28;20586;-67
2022/04/21 09:49:42;;;;;;;4.30;4.20;;;;;;;14.02;48.23;100666.06;5117739;28;20185;-68
2022/04/21 09:52:08;;;;;;;4.53;4.47;;;;;;;13.80;47.16;100675.25;5117688;28;20197;-68
2022/04/21 09:54:35;;;;;;;5.27;4.90;;;;;;;13.56;47.88;100678.28;5117201;28;20241;-68
2022/04/21 09:57:04;;;;;;;15.23;4.73;;;;;;;13.39;48.19;100668.69;5117400;28;20594;-68
2022/04/21 09:59:35;;;;;;;6.20;5.17;;;;;;;13.49;48.92;100672.50;5117147;28;20188;-68
2022/04/21 10:02:03;;;;;;;5.00;5.00;;;;;;;13.30;49.22;100671.81;5117405;28;20200;-68
2022/04/21 10:04:30;;;;;;;8.53;4.97;;;;;;;13.21;49.52;100672.28;5117020;28;20274;-69
2022/04/21 10:06:57;;;;;;;5.67;5.47;;;;;;;13.24;50.13;100672.13;5116944;28;20238;-69
2022/04/21 10:09:25;;;;;;;5.13;5.00;;;;;;;13.37;50.43;100662.66;5116882;28;20189;-69
2022/04/21 10:11:52;;;;;;;5.50;5.13;;;;;;;13.43;52.33;100662.34;5116800;28;20679;-68
2022/04/21 10:14:19;;;;;;;5.57;5.43;;;;;;;13.25;51.45;100658.03;5116887;28;20215;-69
2022/04/21 10:16:45;;;;;;;5.53;5.43;;;;;;;13.27;50.70;100666.69;5117029;28;20259;-68
2022/04/21 10:19:14;;;;;;;5.47;5.17;;;;;;;13.10;50.86;100653.56;5116889;28;20186;-68
2022/04/21 10:21:51;;;;;;;5.23;5.13;;;;;;;13.20;51.81;100653.03;5116689;28;20235;-69
2022/04/21 10:24:23;;;;;;;5.20;5.20;;;;;;;13.01;49.88;100654.91;5116670;28;20182;-69
2022/04/21 10:26:49;;;;;;;5.67;5.57;;;;;;;13.10;51.02;100648.31;5116579;28;20210;-68
2022/04/21 10:29:22;;;;;;;5.33;5.23;;;;;;;13.01;51.00;100640.94;5116813;28;20592;-69
2022/04/21 10:31:51;;;;;;;16.97;6.40;;;;;;;13.03;49.92;100641.69;5116948;28;20169;-68
2022/04/21 10:34:34;;;;;;;5.97;5.70;;;;;;;13.30;50.63;100628.88;5116442;28;20190;-69
2022/04/21 10:37:15;;;;;;;6.47;5.40;;;;;;;13.26;51.59;100628.19;5116438;28;20216;-69
2022/04/21 10:40:14;;;;;;;6.13;6.00;;;;;;;13.50;50.74;100623.38;5116354;28;20185;-69
2022/04/21 10:42:53;;;;;;;6.57;5.93;;;;;;;13.52;50.42;100624.16;5112424;28;20205;-69
2022/04/21 10:45:24;;;;;;;6.30;6.20;;;;;;;13.59;50.57;100630.78;5116446;28;20653;-68
2022/04/21 10:48:08;;;;;;;5.80;5.57;;;;;;;13.77;50.12;100613.09;5115321;28;20181;-69
2022/04/21 10:50:37;;;;;;;6.43;6.03;;;;;;;13.90;50.87;100615.91;5116041;28;20550;-68
2022/04/21 10:58:34;;;;;;;7.10;6.03;;;;;;;14.32;50.45;100604.69;5116521;28;20181;-69
2022/04/21 11:01:17;;;;;;;8.13;5.60;;;;;;;14.54;50.78;100610.41;5116621;28;20592;-68
2022/04/21 11:03:46;;;;;;;5.80;5.67;;;;;;;14.69;50.57;100608.63;5116241;28;20166;-68
2022/04/21 11:06:15;;;;;;;6.60;6.17;;;;;;;14.73;48.77;100609.31;5111256;28;20224;-69
2022/04/21 11:08:43;;;;;;;6.00;5.90;;;;;;;14.72;48.76;100602.34;5111676;28;20720;-69
2022/04/21 11:11:09;;;;;;;5.87;5.67;;;;;;;14.80;48.62;100602.72;5112377;28;20539;-69
2022/04/21 11:13:48;;;;;;;6.47;6.17;;;;;;;14.93;50.03;100592.25;5113790;28;20682;-69
2022/04/21 11:16:36;;;;;;;6.50;5.93;;;;;;;15.10;48.47;100597.38;5112511;28;20216;-68
2022/04/21 11:19:32;;;;;;;6.67;6.23;;;;;;;15.42;48.58;100590.06;5108616;28;20254;-68
2022/04/21 11:22:01;;;;;;;6.30;5.57;;;;;;;15.37;48.32;100592.16;5114120;28;20238;-69
2022/04/21 11:24:58;;;;;;;5.80;5.57;;;;;;;15.49;46.83;100594.00;5115448;28;20185;-68
2022/04/21 11:27:26;;;;;;;5.23;5.13;;;;;;;15.30;46.08;100590.84;5115299;28;20254;-68
2022/04/21 11:29:58;;;;;;;4.67;4.67;;;;;;;15.33;46.32;100582.72;5115305;28;20720;-68
2022/04/21 11:32:28;;;;;;;5.33;4.90;;;;;;;15.27;45.14;100589.22;5115627;28;20554;-68
2022/04/21 11:35:00;;;;;;;5.50;5.40;;;;;;;15.27;46.17;100593.66;5115595;28;20188;-68
2022/04/21 11:37:58;;;;;;;4.77;4.67;;;;;;;15.40;47.09;100584.88;5115104;28;20213;-69
2022/04/21 11:40:37;;;;;;;4.87;4.57;;;;;;;15.18;46.34;100586.34;5115333;28;20651;-68
2022/04/21 11:43:17;;;;;;;5.07;4.80;;;;;;;15.26;45.88;100586.69;5115375;28;20166;-68
2022/04/21 11:45:58;;;;;;;6.13;4.77;;;;;;;15.06;47.10;100596.69;5115297;28;20204;-68
2022/04/21 11:48:34;;;;;;;5.50;5.33;;;;;;;15.28;46.08;100592.72;5115590;28;20192;-68
2022/04/21 11:51:01;;;;;;;5.47;5.17;;;;;;;15.14;47.25;100588.28;5115203;28;20199;-69
2022/04/21 11:53:34;;;;;;;5.37;4.80;;;;;;;15.39;47.96;100582.34;5115156;28;20262;-69
2022/04/21 11:56:01;;;;;;;7.00;5.50;;;;;;;15.26;48.39;100587.53;5115239;28;20209;-68
2022/04/21 11:58:35;;;;;;;5.73;5.43;;;;;;;15.16;47.11;100585.59;5114851;28;20570;-69
2022/04/21 12:06:39;;;;;;;5.63;5.23;;;;;;;15.80;45.29;100577.09;5115418;28;20209;-69
2022/04/21 12:09:07;;;;;;;5.13;5.03;;;;;;;15.68;46.74;100568.16;5114653;28;20189;-68
2022/04/21 12:11:34;;;;;;;7.50;5.57;;;;;;;15.98;46.62;100564.44;5114959;28;20169;-69
2022/04/21 12:14:01;;;;;;;7.97;5.00;;;;;;;16.06;44.61;100566.56;5114657;28;20189;-69
2022/04/21 12:16:39;;;;;;;5.47;5.47;;;;;;;15.85;46.20;100558.28;5105152;28;20678;-68
2022/04/21 12:19:42;;;;;;;6.30;6.07;;;;;;;15.64;47.07;100571.06;5114357;28;20231;-69
2022/04/21 12:22:16;;;;;;;5.77;5.63;;;;;;;15.92;48.14;100554.28;5112976;28;20181;-68
2022/04/21 12:24:48;;;;;;;6.27;6.07;;;;;;;16.23;48.73;100548.66;5114364;28;20193;-69
2022/04/21 12:27:17;;;;;;;5.60;5.50;;;;;;;16.35;46.78;100556.69;5113815;28;20246;-71